Time;durP1;ratioP1;P1;durP2;ratioP2;P2;SDS_P1;SDS_P2;PMS_P1;PMS_P2;Temp;Humidity;BMP_temperature;BMP_pressure;BME280_temperature;BME280_humidity;BME280_pressure;Samples;Min_cycle;Max_cycle;Signal;HPM_P1;HPM_P2
2021/08/29 00:01:57;;;;;;;;;5.00;5.00;;;;;16.88;65.67;101911.47;4923238;28;46012;-67
2021/08/29 00:04:23;;;;;;;;;6.75;6.00;;;;;16.86;65.45;101916.13;4922687;28;45504;-67
2021/08/29 00:06:49;;;;;;;;;5.00;5.00;;;;;16.85;65.48;101917.13;4926450;28;47013;-67
2021/08/29 00:09:14;;;;;;;;;5.00;5.00;;;;;16.84;65.88;101918.16;4908438;28;45418;-66
2021/08/29 00:11:39;;;;;;;;;6.50;5.75;;;;;16.85;66.10;101903.78;4922227;28;46004;-66
2021/08/29 00:14:05;;;;;;;;;6.25;4.00;;;;;16.87;65.94;101912.47;4924602;28;45562;-66
2021/08/29 00:16:30;;;;;;;;;5.00;5.00;;;;;16.90;65.71;101905.97;4949125;28;46191;-67
2021/08/29 00:18:56;;;;;;;;;5.75;5.00;;;;;16.92;65.69;101912.00;4986243;28;45603;-67
2021/08/29 00:21:21;;;;;;;;;6.75;6.00;;;;;16.92;65.78;101904.81;4911461;28;45815;-67
2021/08/29 00:23:47;;;;;;;;;5.25;5.00;;;;;16.91;65.38;101905.81;4915726;28;45464;-66
2021/08/29 00:26:12;;;;;;;;;6.00;6.00;;;;;16.93;65.49;101902.97;4926516;28;46292;-66
2021/08/29 00:28:37;;;;;;;;;8.00;5.75;;;;;16.94;65.85;101905.50;4926265;28;51483;-66
2021/08/29 00:31:03;;;;;;;;;5.00;5.00;;;;;16.94;65.77;101894.81;4926433;28;45769;-66
2021/08/29 00:33:28;;;;;;;;;7.75;6.00;;;;;16.92;65.68;101890.63;4915994;28;45563;-67
2021/08/29 00:35:54;;;;;;;;;6.50;5.50;;;;;16.90;65.53;101895.28;4911144;28;46117;-67
2021/08/29 00:38:20;;;;;;;;;10.00;4.00;;;;;16.90;66.20;101897.97;4906867;28;45604;-66
2021/08/29 00:40:47;;;;;;;;;5.50;5.25;;;;;16.90;66.06;101895.28;4902040;28;45545;-67
2021/08/29 00:43:13;;;;;;;;;6.25;6.25;;;;;16.88;65.58;101892.78;4902916;28;45458;-67
2021/08/29 00:45:38;;;;;;;;;6.25;6.00;;;;;16.88;66.21;101890.09;4900410;28;46280;-67
2021/08/29 00:48:07;;;;;;;;;8.25;5.75;;;;;16.88;66.12;101889.28;4902239;28;45477;-67
2021/08/29 00:50:32;;;;;;;;;6.50;5.00;;;;;16.86;66.23;101886.75;4907208;28;45511;-67
2021/08/29 00:52:58;;;;;;;;;7.25;6.50;;;;;16.87;66.16;101891.13;4902301;28;45418;-67
2021/08/29 00:55:23;;;;;;;;;10.25;6.50;;;;;16.88;66.33;101895.44;4901812;28;45911;-67
2021/08/29 00:57:49;;;;;;;;;5.75;5.50;;;;;16.88;66.01;101882.09;4900090;28;49474;-67
2021/08/29 01:00:14;;;;;;;;;12.00;7.50;;;;;16.90;66.49;101881.94;4900435;28;45972;-66
2021/08/29 01:02:42;;;;;;;;;7.50;5.00;;;;;16.89;66.45;101889.13;4901401;28;45430;-66
2021/08/29 01:05:17;;;;;;;;;6.25;6.00;;;;;16.86;66.00;101885.94;4903094;28;47655;-67
2021/08/29 01:07:59;;;;;;;;;7.25;5.00;;;;;16.84;66.03;101888.78;4900562;28;45961;-66
2021/08/29 01:10:50;;;;;;;;;7.75;5.25;;;;;16.81;66.79;101883.75;4900465;28;45466;-67
2021/08/29 01:13:24;;;;;;;;;6.50;6.00;;;;;16.75;66.46;101881.69;4894652;28;45452;-67
2021/08/29 01:15:57;;;;;;;;;6.00;5.75;;;;;16.69;66.41;101885.88;4900361;28;46178;-67
2021/08/29 01:18:24;;;;;;;;;7.00;6.00;;;;;16.66;66.78;101877.31;4890113;28;45605;-67
2021/08/29 01:21:07;;;;;;;;;8.00;6.00;;;;;16.61;66.93;101876.97;4903624;28;45410;-67
2021/08/29 01:23:37;;;;;;;;;8.50;7.00;;;;;16.55;66.86;101876.63;4907298;28;45843;-66
2021/08/29 01:26:11;;;;;;;;;6.00;5.25;;;;;16.51;67.35;101880.59;4901400;28;46268;-66
2021/08/29 01:29:03;;;;;;;;;6.00;6.00;;;;;16.45;67.18;101875.91;4901349;28;45602;-67
2021/08/29 01:31:31;;;;;;;;;5.75;5.25;;;;;16.40;67.45;101883.56;4900592;28;45550;-66
2021/08/29 01:34:01;;;;;;;;;6.00;5.50;;;;;16.36;67.70;101892.06;4902365;28;45872;-67
2021/08/29 01:36:28;;;;;;;;;5.50;5.00;;;;;16.32;68.07;101886.22;4903496;28;46339;-66
2021/08/29 01:38:54;;;;;;;;;6.00;5.00;;;;;16.27;68.08;101884.03;4902121;28;45752;-66
2021/08/29 01:41:23;;;;;;;;;7.75;5.75;;;;;16.24;68.45;101886.16;4904045;28;45490;-66
2021/08/29 01:43:49;;;;;;;;;5.25;5.00;;;;;16.20;68.09;101887.47;4902228;28;45533;-68
2021/08/29 01:46:18;;;;;;;;;6.25;5.00;;;;;16.16;68.21;101883.44;4902437;28;46266;-66
2021/08/29 01:48:45;;;;;;;;;3.50;3.25;;;;;16.12;68.78;101878.44;4902068;28;45522;-67
2021/08/29 01:51:11;;;;;;;;;8.25;5.00;;;;;16.11;68.80;101886.59;4899623;28;45813;-67
2021/08/29 01:53:38;;;;;;;;;8.25;5.00;;;;;16.08;68.66;101879.75;4901198;28;45523;-67
2021/08/29 01:56:05;;;;;;;;;7.75;5.75;;;;;16.07;68.97;101883.41;4906663;28;47167;-68
2021/08/29 01:58:30;;;;;;;;;8.00;5.25;;;;;16.06;69.24;101888.88;4899257;28;45974;-71
2021/08/29 02:00:58;;;;;;;;;7.75;6.25;;;;;16.06;69.12;101892.38;4900739;28;45608;-68
2021/08/29 02:03:25;;;;;;;;;7.75;5.00;;;;;16.05;69.31;101887.22;4899549;28;45949;-66
2021/08/29 02:05:56;;;;;;;;;10.50;6.00;;;;;16.03;69.33;101890.03;4902000;28;45484;-67
2021/08/29 02:08:24;;;;;;;;;5.25;4.75;;;;;16.02;69.31;101891.03;4904373;28;45739;-67
2021/08/29 02:10:52;;;;;;;;;6.25;6.00;;;;;16.01;69.33;101892.03;4902184;28;45426;-67
2021/08/29 02:13:22;;;;;;;;;7.50;6.00;;;;;15.99;69.32;101894.00;4900062;28;45593;-67
2021/08/29 02:16:00;;;;;;;;;7.25;6.00;;;;;15.99;69.37;101888.66;4904780;28;46111;-67
2021/08/29 02:18:27;;;;;;;;;7.00;5.00;;;;;15.97;69.70;101889.81;4887879;28;45600;-67
2021/08/29 02:20:53;;;;;;;;;9.50;6.25;;;;;15.98;69.69;101891.50;4902845;28;45612;-67
2021/08/29 02:23:23;;;;;;;;;8.25;7.75;;;;;15.97;69.90;101906.66;4905572;28;45597;-68
2021/08/29 02:25:50;;;;;;;;;8.00;6.00;;;;;15.99;70.18;101893.19;4900387;28;47504;-67
2021/08/29 02:28:16;;;;;;;;;13.00;6.75;;;;;15.98;70.14;101903.00;4900052;28;45498;-67
2021/08/29 02:30:43;;;;;;;;;9.75;6.00;;;;;15.98;70.10;101897.69;4903210;28;45544;-67
2021/08/29 02:33:12;;;;;;;;;7.75;6.00;;;;;15.99;69.84;101901.16;4903451;28;45486;-67
2021/08/29 02:35:40;;;;;;;;;7.50;7.25;;;;;15.98;70.01;101903.00;4904735;28;46092;-67
2021/08/29 02:38:06;;;;;;;;;8.75;7.50;;;;;15.98;70.13;101902.19;4903381;28;45627;-67
2021/08/29 02:40:37;;;;;;;;;10.75;8.00;;;;;15.99;70.12;101904.66;4905471;28;46081;-67
2021/08/29 02:43:02;;;;;;;;;7.75;7.50;;;;;16.01;70.58;101900.03;4898416;28;45460;-68
2021/08/29 02:45:29;;;;;;;;;3.75;0.75;;;;;16.04;70.61;101906.88;4901064;28;46015;-67
2021/08/29 02:47:54;;;;;;;;;10.75;7.00;;;;;16.02;70.23;101904.38;4900703;28;45481;-67
2021/08/29 02:50:22;;;;;;;;;10.75;8.75;;;;;16.03;70.50;101903.38;4902380;28;45458;-67
2021/08/29 02:52:47;;;;;;;;;9.25;6.25;;;;;16.05;70.29;101905.91;4899219;28;45974;-67
2021/08/29 02:55:15;;;;;;;;;10.00;8.00;;;;;16.06;70.32;101903.06;4899008;28;46233;-67
2021/08/29 02:57:44;;;;;;;;;6.75;6.75;;;;;16.08;70.09;101893.06;4899036;28;45594;-67
2021/08/29 03:00:12;;;;;;;;;9.00;8.00;;;;;16.12;70.32;101898.91;4905292;28;45959;-67
2021/08/29 03:02:38;;;;;;;;;14.75;10.00;;;;;16.14;70.22;101896.94;4904665;28;45471;-67
2021/08/29 03:05:04;;;;;;;;;11.50;8.00;;;;;16.17;70.23;101898.44;4902612;28;45547;-67
2021/08/29 03:07:29;;;;;;;;;12.50;9.50;;;;;16.18;70.44;101897.47;4900309;28;46034;-67
2021/08/29 03:09:55;;;;;;;;;12.00;9.00;;;;;16.20;70.23;101895.47;4900678;28;45875;-67
2021/08/29 03:12:21;;;;;;;;;9.00;9.00;;;;;16.23;70.10;101896.00;4948649;28;45896;-67
2021/08/29 03:14:46;;;;;;;;;11.50;9.00;;;;;16.25;70.24;101890.50;4906367;28;46244;-67
2021/08/29 03:17:12;;;;;;;;;12.75;10.50;;;;;16.25;70.05;101887.84;4958725;28;45512;-67
2021/08/29 03:19:39;;;;;;;;;11.50;9.50;;;;;16.27;70.24;101891.16;4919158;28;47934;-67
2021/08/29 03:22:05;;;;;;;;;6.50;6.50;;;;;16.28;70.39;101887.50;4902136;28;45926;-67
2021/08/29 03:24:30;;;;;;;;;8.75;7.00;;;;;16.31;70.31;101885.34;4902972;28;47445;-67
2021/08/29 03:26:56;;;;;;;;;12.25;10.00;;;;;16.33;69.83;101877.19;4903510;28;45444;-67
2021/08/29 03:29:21;;;;;;;;;11.00;10.00;;;;;16.34;69.97;101885.06;4904967;28;45755;-68
2021/08/29 03:31:47;;;;;;;;;12.25;11.50;;;;;16.36;70.13;101874.22;4905542;28;45477;-66
2021/08/29 03:34:16;;;;;;;;;10.25;9.25;;;;;16.36;69.90;101878.72;4899222;28;46116;-66
2021/08/29 03:36:45;;;;;;;;;12.75;9.00;;;;;16.37;69.73;101880.38;4904955;28;45525;-67
2021/08/29 03:39:12;;;;;;;;;14.00;11.00;;;;;16.38;70.01;101876.72;4902990;28;45631;-66
2021/08/29 03:41:43;;;;;;;;;12.00;8.00;;;;;16.36;69.75;101871.53;4906016;28;46108;-66
2021/08/29 03:44:11;;;;;;;;;10.75;10.50;;;;;16.34;70.05;101877.06;4905991;28;45698;-66
2021/08/29 03:46:36;;;;;;;;;12.50;12.00;;;;;16.34;70.25;101873.53;4904700;28;45553;-66
2021/08/29 03:49:04;;;;;;;;;12.00;11.00;;;;;16.30;69.97;101862.34;4902940;28;45925;-66
2021/08/29 03:51:30;;;;;;;;;14.00;14.00;;;;;16.29;70.04;101862.50;4903604;28;45601;-66
2021/08/29 03:53:56;;;;;;;;;15.50;13.00;;;;;16.27;70.30;101856.47;4900003;28;47007;-66
2021/08/29 03:56:22;;;;;;;;;11.75;10.00;;;;;16.25;70.12;101862.00;4904981;28;45689;-66
2021/08/29 03:58:47;;;;;;;;;8.00;7.75;;;;;16.22;70.53;101864.13;4895936;28;45921;-67
2021/08/29 04:01:13;;;;;;;;;11.00;10.50;;;;;16.19;70.02;101861.78;4893450;28;45799;-66
2021/08/29 04:03:38;;;;;;;;;10.75;10.75;;;;;16.16;70.33;101860.28;4892104;28;45693;-66
2021/08/29 04:06:04;;;;;;;;;11.75;10.00;;;;;16.10;70.18;101859.09;4895285;28;45486;-66
2021/08/29 04:08:45;;;;;;;;;16.00;12.50;;;;;16.06;70.28;101868.38;4899596;28;45569;-66
2021/08/29 04:11:11;;;;;;;;;12.00;10.00;;;;;15.98;70.50;101865.69;4903451;28;46192;-70
2021/08/29 04:13:37;;;;;;;;;11.25;9.00;;;;;15.90;70.57;101861.13;4896254;28;45913;-66
2021/08/29 04:16:04;;;;;;;;;10.75;8.00;;;;;15.84;71.08;101869.75;4904648;28;45725;-66
2021/08/29 04:18:34;;;;;;;;;11.50;10.00;;;;;15.76;71.35;101867.03;4944065;28;45552;-65
2021/08/29 04:21:00;;;;;;;;;12.75;8.75;;;;;15.70;71.60;101867.63;4899723;28;45410;-70
2021/08/29 04:23:26;;;;;;;;;11.50;9.00;;;;;15.69;71.93;101865.94;4895072;28;47610;-66
2021/08/29 04:25:51;;;;;;;;;9.25;9.00;;;;;15.66;71.91;101861.75;4902322;28;45569;-66
2021/08/29 04:28:17;;;;;;;;;9.00;8.00;;;;;15.62;71.98;101864.91;4904195;28;45533;-66
2021/08/29 04:30:44;;;;;;;;;10.75;8.00;;;;;15.59;71.71;101859.88;4907574;28;50435;-66
2021/08/29 04:33:10;;;;;;;;;6.25;6.25;;;;;15.57;72.15;101868.03;4901175;28;46417;-66
2021/08/29 04:35:36;;;;;;;;;11.50;10.00;;;;;15.55;72.39;101874.50;4907326;28;45487;-66
2021/08/29 04:38:02;;;;;;;;;11.00;11.00;;;;;15.52;72.18;101864.97;4900901;28;45383;-66
2021/08/29 04:40:27;;;;;;;;;9.00;8.00;;;;;15.51;72.33;101871.31;4904078;28;45799;-66
2021/08/29 04:42:52;;;;;;;;;10.50;9.50;;;;;15.51;72.22;101863.31;4900181;28;46188;-66
2021/08/29 04:45:18;;;;;;;;;10.25;7.75;;;;;15.51;72.35;101868.66;4903069;28;45411;-66
2021/08/29 04:47:43;;;;;;;;;12.50;10.00;;;;;15.50;72.28;101861.63;4905580;28;45499;-67
2021/08/29 04:50:08;;;;;;;;;12.75;8.50;;;;;15.50;72.32;101866.97;4907069;28;45474;-66
2021/08/29 04:52:34;;;;;;;;;11.75;9.00;;;;;15.50;72.13;101877.63;4900847;28;45860;-67
2021/08/29 04:55:00;;;;;;;;;13.00;11.00;;;;;15.48;72.57;101868.97;4900808;28;45568;-66
2021/08/29 04:57:25;;;;;;;;;8.25;8.00;;;;;15.47;72.17;101864.59;4903482;28;45504;-66
2021/08/29 04:59:50;;;;;;;;;11.00;9.00;;;;;15.46;72.43;101876.28;4902731;28;45527;-66
2021/08/29 05:02:16;;;;;;;;;11.75;9.25;;;;;15.46;72.07;101876.28;4904828;28;45472;-66
2021/08/29 05:04:41;;;;;;;;;15.75;10.50;;;;;15.46;72.25;101879.75;4900999;28;50246;-66
2021/08/29 05:07:06;;;;;;;;;14.25;12.75;;;;;15.47;73.02;101867.28;4902026;28;45662;-66
2021/08/29 05:09:32;;;;;;;;;15.00;12.25;;;;;15.47;72.63;101878.75;4903204;28;45573;-66
2021/08/29 05:11:57;;;;;;;;;21.75;17.25;;;;;15.47;72.54;101878.75;4904927;28;47408;-66
2021/08/29 05:14:22;;;;;;;;;21.25;15.50;;;;;15.47;72.66;101872.59;4906175;28;45733;-66
2021/08/29 05:16:48;;;;;;;;;19.50;15.00;;;;;15.47;72.66;101873.44;4940813;28;45764;-66
2021/08/29 05:19:13;;;;;;;;;16.75;14.25;;;;;15.46;72.72;101870.94;4935111;28;45939;-67
2021/08/29 05:21:38;;;;;;;;;15.00;11.00;;;;;15.46;72.89;101878.94;4901859;28;46290;-66
2021/08/29 05:24:04;;;;;;;;;13.00;12.25;;;;;15.45;73.07;101878.09;4904106;28;45469;-66
2021/08/29 05:26:30;;;;;;;;;9.00;8.50;;;;;15.44;72.73;101881.75;4907317;28;45502;-66
2021/08/29 05:28:55;;;;;;;;;14.75;10.00;;;;;15.44;72.77;101883.56;4896925;28;45502;-66
2021/08/29 05:31:20;;;;;;;;;13.50;9.50;;;;;15.46;72.85;101884.25;4901780;28;46457;-66
2021/08/29 05:33:46;;;;;;;;;11.50;9.00;;;;;15.47;72.59;101893.91;4908617;28;45455;-66
2021/08/29 05:36:11;;;;;;;;;9.25;7.75;;;;;15.47;72.79;101885.91;4896555;28;45487;-67
2021/08/29 05:38:36;;;;;;;;;11.50;9.50;;;;;15.47;73.08;101889.41;4900154;28;45735;-67
2021/08/29 05:41:02;;;;;;;;;13.50;11.25;;;;;15.49;72.73;101898.09;4900323;28;46975;-67
2021/08/29 05:43:27;;;;;;;;;18.00;11.00;;;;;15.46;72.96;101885.09;4902581;28;46228;-67
2021/08/29 05:45:52;;;;;;;;;12.75;12.75;;;;;15.48;72.98;101891.09;4900164;28;45534;-67
2021/08/29 05:48:18;;;;;;;;;18.00;12.25;;;;;15.53;72.91;101897.78;4900398;28;45593;-67
2021/08/29 05:50:43;;;;;;;;;20.25;13.50;;;;;15.56;72.72;101892.16;4902760;28;48173;-67
2021/08/29 05:53:08;;;;;;;;;15.00;12.50;;;;;15.60;73.20;101897.03;4905123;28;45622;-67
2021/08/29 05:55:34;;;;;;;;;16.25;14.00;;;;;15.63;72.60;101901.22;4905380;28;45488;-67
2021/08/29 05:57:59;;;;;;;;;14.00;13.00;;;;;15.65;72.62;101892.09;4902387;28;45641;-67
2021/08/29 06:00:24;;;;;;;;;20.25;14.00;;;;;15.68;72.68;101890.94;4901019;28;46216;-67
2021/08/29 06:02:50;;;;;;;;;17.50;13.50;;;;;15.72;72.61;101891.47;4901141;28;46006;-67
2021/08/29 06:05:15;;;;;;;;;14.75;10.25;;;;;15.77;72.56;101891.84;4903338;28;45802;-67
2021/08/29 06:07:40;;;;;;;;;15.50;12.75;;;;;15.83;72.31;101884.06;4898936;28;45526;-66
2021/08/29 06:10:06;;;;;;;;;17.75;13.00;;;;;15.89;72.53;101883.44;4894509;28;46075;-67
2021/08/29 06:12:32;;;;;;;;;20.25;16.25;;;;;15.93;72.24;101888.47;4901125;28;45610;-66
2021/08/29 06:14:57;;;;;;;;;19.25;14.00;;;;;15.97;72.36;101887.97;4901812;28;46311;-67
2021/08/29 06:17:22;;;;;;;;;13.75;13.25;;;;;16.03;72.06;101892.72;4966227;28;45438;-67
2021/08/29 06:19:48;;;;;;;;;21.50;16.75;;;;;16.10;71.80;101896.41;4910476;28;46093;-67
2021/08/29 06:22:13;;;;;;;;;16.75;16.00;;;;;16.18;71.91;101897.47;4903792;28;45918;-67
2021/08/29 06:24:38;;;;;;;;;18.25;16.25;;;;;16.23;71.50;101895.16;4902139;28;45518;-66
2021/08/29 06:27:04;;;;;;;;;17.25;15.25;;;;;16.30;71.46;101885.53;4899716;28;45629;-66
2021/08/29 06:29:29;;;;;;;;;18.00;15.25;;;;;16.37;71.04;101893.72;4904690;28;46480;-67
2021/08/29 06:31:56;;;;;;;;;21.00;14.75;;;;;16.40;70.99;101888.91;4901893;28;45528;-66
2021/08/29 06:34:21;;;;;;;;;22.50;18.75;;;;;16.47;71.25;101892.63;4900131;28;45476;-68
2021/08/29 06:36:47;;;;;;;;;17.50;16.50;;;;;16.51;70.58;101893.94;4899265;28;45565;-67
2021/08/29 06:39:13;;;;;;;;;19.25;14.25;;;;;16.55;70.58;101892.63;4899871;28;46358;-67
2021/08/29 06:41:39;;;;;;;;;16.75;14.50;;;;;16.63;70.55;101899.00;4905504;28;45721;-66
2021/08/29 06:44:05;;;;;;;;;13.75;12.50;;;;;16.72;70.26;101888.19;4901489;28;45410;-67
2021/08/29 06:46:30;;;;;;;;;18.25;14.75;;;;;16.82;70.15;101900.63;4902409;28;45490;-65
2021/08/29 06:48:55;;;;;;;;;17.75;14.00;;;;;16.84;69.79;101899.47;4904387;28;46456;-64
2021/08/29 06:51:20;;;;;;;;;16.50;12.50;;;;;16.83;70.13;101900.44;4902374;28;45537;-65
2021/08/29 06:53:46;;;;;;;;;15.00;13.25;;;;;16.85;69.46;101905.63;4905596;28;45501;-64
2021/08/29 06:56:11;;;;;;;;;12.75;9.50;;;;;16.84;69.83;101909.28;4901920;28;45448;-64
2021/08/29 06:58:36;;;;;;;;;13.75;12.50;;;;;16.88;69.86;101908.78;4901753;28;45911;-65
2021/08/29 07:01:02;;;;;;;;;15.75;11.00;;;;;16.94;69.73;101905.50;4903645;28;46036;-64
2021/08/29 07:03:27;;;;;;;;;11.75;9.75;;;;;17.00;69.56;101908.50;4900872;28;45718;-64
2021/08/29 07:05:52;;;;;;;;;11.50;8.50;;;;;17.02;69.42;101903.84;4903206;28;45738;-64
2021/08/29 07:08:18;;;;;;;;;11.50;9.00;;;;;17.03;69.41;101894.81;4904764;28;46329;-65
2021/08/29 07:10:43;;;;;;;;;10.00;9.50;;;;;17.07;69.08;101893.50;4899792;28;45708;-65
2021/08/29 07:13:08;;;;;;;;;9.50;8.00;;;;;17.09;69.28;101902.19;4899568;28;45439;-65
2021/08/29 07:15:34;;;;;;;;;9.75;7.75;;;;;17.07;68.97;101898.84;4899851;28;45525;-64
2021/08/29 07:17:59;;;;;;;;;10.50;9.50;;;;;17.04;69.01;101899.19;4918504;28;61965;-65
2021/08/29 07:20:24;;;;;;;;;11.00;8.00;;;;;17.02;69.02;101903.84;4906798;28;46146;-64
2021/08/29 07:22:50;;;;;;;;;8.50;8.00;;;;;17.00;68.92;101913.84;4899690;28;45471;-64
2021/08/29 07:25:15;;;;;;;;;9.25;9.25;;;;;16.96;68.91;101908.84;4899050;28;45904;-65
2021/08/29 07:27:40;;;;;;;;;15.75;11.50;;;;;16.92;68.85;101910.16;4895436;28;45810;-64
2021/08/29 07:30:06;;;;;;;;;11.50;10.50;;;;;16.92;69.25;101914.66;4905675;28;45368;-64
2021/08/29 07:32:32;;;;;;;;;11.50;10.00;;;;;17.00;69.22;101911.19;4908364;28;45559;-64
2021/08/29 07:34:57;;;;;;;;;11.75;10.50;;;;;17.13;69.20;101904.34;4925344;28;46014;-64
2021/08/29 07:37:22;;;;;;;;;13.75;13.00;;;;;17.22;68.75;101901.72;4900908;28;46111;-64
2021/08/29 07:39:49;;;;;;;;;15.00;11.00;;;;;17.25;68.60;101906.72;4903821;28;45636;-64
2021/08/29 07:42:15;;;;;;;;;12.75;10.75;;;;;17.27;68.44;101910.91;4901529;28;45574;-64
2021/08/29 07:44:40;;;;;;;;;15.50;14.00;;;;;17.33;68.74;101904.03;4907027;28;45683;-64
2021/08/29 07:47:06;;;;;;;;;12.00;11.00;;;;;17.37;68.59;101908.91;4908125;28;46190;-64
2021/08/29 07:49:31;;;;;;;;;15.50;12.50;;;;;17.44;68.10;101905.56;4904623;28;45602;-64
2021/08/29 07:51:57;;;;;;;;;14.50;14.50;;;;;17.52;67.64;101908.25;4901650;28;45711;-64
2021/08/29 07:54:22;;;;;;;;;13.75;12.25;;;;;17.59;67.69;101914.59;4904084;28;45988;-64
2021/08/29 07:56:47;;;;;;;;;13.25;11.25;;;;;17.61;67.52;101917.94;4904170;28;46022;-64
2021/08/29 07:59:13;;;;;;;;;14.25;14.25;;;;;17.61;67.63;101913.44;4904487;28;45647;-63
2021/08/29 08:01:39;;;;;;;;;17.25;14.25;;;;;17.65;67.38;101913.09;4901488;28;45833;-63
2021/08/29 08:04:04;;;;;;;;;15.75;14.50;;;;;17.63;67.65;101921.28;4907681;28;45411;-64
2021/08/29 08:06:30;;;;;;;;;18.75;17.00;;;;;17.65;67.31;101919.25;4901425;28;46091;-64
2021/08/29 08:08:57;;;;;;;;;16.75;14.25;;;;;17.71;67.32;101912.44;4903320;28;45434;-64
2021/08/29 08:11:22;;;;;;;;;15.75;15.00;;;;;17.81;67.32;101913.94;4906454;28;45780;-64
2021/08/29 08:13:48;;;;;;;;;14.25;14.25;;;;;17.91;66.61;101912.94;4907501;28;45754;-63
2021/08/29 08:16:13;;;;;;;;;21.00;18.75;;;;;18.00;66.94;101917.25;4909384;28;45596;-63
2021/08/29 08:18:38;;;;;;;;;19.50;17.75;;;;;18.21;66.32;101914.88;4892525;28;45729;-63
2021/08/29 08:21:04;;;;;;;;;19.50;16.50;;;;;18.54;65.96;101906.75;4903569;28;45497;-63
2021/08/29 08:23:29;;;;;;;;;18.00;16.75;;;;;18.96;64.67;101908.25;4906656;28;45483;-63
2021/08/29 08:25:54;;;;;;;;;21.25;17.75;;;;;19.30;64.05;101909.72;4901009;28;46185;-64
2021/08/29 08:28:20;;;;;;;;;15.75;13.00;;;;;19.54;62.93;101904.16;4901082;28;45550;-63
2021/08/29 08:30:45;;;;;;;;;18.00;16.25;;;;;19.70;62.59;101900.53;4900933;28;45548;-63
2021/08/29 08:33:10;;;;;;;;;16.25;15.50;;;;;19.86;61.94;101902.25;4902548;28;45403;-63
2021/08/29 08:35:36;;;;;;;;;16.50;14.50;;;;;19.86;61.50;101904.91;4906957;28;45391;-63
2021/08/29 08:38:01;;;;;;;;;15.75;15.25;;;;;19.80;62.21;101902.94;4901825;28;45497;-63
2021/08/29 08:40:38;;;;;;;;;15.00;14.50;;;;;19.81;61.53;101904.63;4901382;28;45538;-64
2021/08/29 08:43:04;;;;;;;;;16.50;13.25;;;;;19.79;60.87;101909.34;4901074;28;45951;-64
2021/08/29 08:45:29;;;;;;;;;18.00;12.75;;;;;19.71;61.29;101902.22;4899424;28;46189;-63
2021/08/29 08:47:59;;;;;;;;;13.25;12.25;;;;;19.66;60.92;101906.44;4898514;28;53833;-64
2021/08/29 08:50:26;;;;;;;;;15.50;13.50;;;;;19.65;61.32;101907.41;4905296;28;45489;-63
2021/08/29 08:52:54;;;;;;;;;13.75;11.25;;;;;19.57;60.68;101908.31;4901644;28;45477;-63
2021/08/29 08:55:20;;;;;;;;;16.50;14.50;;;;;19.38;61.37;101904.28;4904849;28;46189;-63
2021/08/29 08:57:47;;;;;;;;;17.25;14.00;;;;;19.26;61.83;101908.38;4906146;28;45523;-63
2021/08/29 09:00:13;;;;;;;;;12.50;11.50;;;;;19.19;62.33;101899.38;4908711;28;45519;-64
2021/08/29 09:02:40;;;;;;;;;15.50;13.50;;;;;19.14;62.40;101899.94;4911142;28;45404;-63
2021/08/29 09:05:08;;;;;;;;;17.50;13.00;;;;;19.07;62.58;101905.16;4907945;28;46106;-64
2021/08/29 09:07:34;;;;;;;;;13.00;11.75;;;;;19.05;62.59;101907.19;4904584;28;45599;-63
2021/08/29 09:09:59;;;;;;;;;13.75;11.75;;;;;19.24;62.61;101911.25;4907322;28;45749;-64
2021/08/29 09:12:24;;;;;;;;;14.75;13.50;;;;;19.52;61.87;101903.50;4908604;28;45862;-63
2021/08/29 09:14:52;;;;;;;;;13.25;13.25;;;;;19.73;61.94;101904.69;4907918;28;46279;-64
2021/08/29 09:17:21;;;;;;;;;10.50;10.50;;;;;19.95;60.93;101892.25;4969121;28;45605;-64
2021/08/29 09:19:46;;;;;;;;;16.50;12.50;;;;;20.18;60.32;101895.69;4917479;28;45466;-64
2021/08/29 09:22:13;;;;;;;;;9.00;8.50;;;;;20.35;59.80;101895.50;4907007;28;45438;-64
2021/08/29 09:24:39;;;;;;;;;12.25;10.00;;;;;20.46;59.83;101888.84;4904475;28;45629;-64
2021/08/29 09:27:11;;;;;;;;;7.25;7.00;;;;;20.56;58.80;101889.41;4907722;28;45435;-64
2021/08/29 09:29:38;;;;;;;;;7.00;7.00;;;;;20.63;58.32;101892.19;4910709;28;45561;-64
2021/08/29 09:32:06;;;;;;;;;10.00;9.00;;;;;20.65;58.57;101890.13;4906359;28;45642;-64
2021/08/29 09:34:32;;;;;;;;;8.25;7.25;;;;;20.70;58.22;101893.94;4907025;28;46081;-64
2021/08/29 09:37:01;;;;;;;;;13.50;10.50;;;;;20.81;58.54;101889.91;4907704;28;45992;-64
2021/08/29 09:39:28;;;;;;;;;7.75;6.50;;;;;20.91;58.25;101886.91;4906115;28;45373;-64
2021/08/29 09:42:04;;;;;;;;;12.25;9.75;;;;;20.94;57.24;101894.59;4902451;28;45570;-64
2021/08/29 09:44:34;;;;;;;;;12.25;10.75;;;;;20.96;57.08;101892.56;4905634;28;46322;-64
2021/08/29 09:47:02;;;;;;;;;9.75;8.75;;;;;20.96;57.49;101889.88;4901359;28;45381;-64
2021/08/29 09:49:33;;;;;;;;;10.25;9.00;;;;;21.05;57.41;101888.72;4900244;28;45514;-64
2021/08/29 09:52:01;;;;;;;;;8.00;6.25;;;;;21.16;56.54;101884.69;4902757;28;45517;-64
2021/08/29 09:54:28;;;;;;;;;9.50;8.25;;;;;21.19;57.29;101887.84;4902920;28;49030;-64
2021/08/29 09:56:54;;;;;;;;;9.25;8.25;;;;;21.22;56.70;101887.47;4902113;28;45731;-65
2021/08/29 09:59:45;;;;;;;;;8.00;8.00;;;;;21.20;56.50;101880.63;4918400;28;45469;-65
2021/08/29 10:02:16;;;;;;;;;10.75;9.25;;;;;21.14;56.53;101887.59;4904321;28;45712;-63
2021/08/29 10:04:42;;;;;;;;;8.25;8.00;;;;;21.00;56.50;101891.16;4902373;28;46224;-70
2021/08/29 10:07:11;;;;;;;;;8.50;7.00;;;;;20.85;57.16;101888.53;4906968;28;45794;-67
2021/08/29 10:09:36;;;;;;;;;8.75;8.00;;;;;20.69;55.86;101894.09;4903083;28;45883;-63
2021/08/29 10:12:03;;;;;;;;;7.75;7.75;;;;;20.43;57.00;101892.72;4985949;28;45851;-67
2021/08/29 10:14:31;;;;;;;;;9.00;7.00;;;;;20.42;57.65;101885.69;4900300;28;48281;-66
2021/08/29 10:16:57;;;;;;;;;8.00;8.00;;;;;20.70;57.37;101883.19;4941675;28;45549;-67
2021/08/29 10:19:23;;;;;;;;;8.75;8.00;;;;;21.12;57.01;101884.25;4931799;28;45637;-69
2021/08/29 10:21:50;;;;;;;;;6.50;6.50;;;;;21.48;56.97;101883.38;4906502;28;45904;-69
2021/08/29 10:24:16;;;;;;;;;8.25;7.75;;;;;21.73;55.76;101888.34;4908175;28;45477;-69
2021/08/29 10:26:44;;;;;;;;;8.75;7.00;;;;;21.89;55.19;101869.22;4907852;28;45718;-68
2021/08/29 10:29:18;;;;;;;;;8.00;8.00;;;;;22.08;54.44;101884.66;4910390;28;45947;-69
2021/08/29 10:31:49;;;;;;;;;8.00;7.00;;;;;22.18;54.97;101880.75;4902453;28;45652;-68
2021/08/29 10:34:15;;;;;;;;;8.00;7.75;;;;;22.40;53.60;101876.97;4907195;28;45951;-68
2021/08/29 10:36:40;;;;;;;;;9.25;8.25;;;;;22.59;53.67;101878.09;4904856;28;45988;-69
2021/08/29 10:39:07;;;;;;;;;9.25;8.00;;;;;22.71;53.44;101875.66;4904535;28;45543;-68
2021/08/29 10:41:32;;;;;;;;;7.00;7.00;;;;;22.84;53.18;101877.53;4908479;28;46026;-68
2021/08/29 10:43:58;;;;;;;;;6.00;5.00;;;;;22.98;52.80;101867.69;4901666;28;45523;-69
2021/08/29 10:46:23;;;;;;;;;9.50;8.50;;;;;23.13;52.13;101869.13;4909023;28;45791;-69
2021/08/29 10:48:51;;;;;;;;;8.50;6.75;;;;;23.26;51.77;101875.59;4902893;28;45449;-69
2021/08/29 10:51:23;;;;;;;;;6.00;6.00;;;;;23.45;50.76;101873.94;4902610;28;45757;-69
2021/08/29 10:53:55;;;;;;;;;7.25;7.00;;;;;23.48;50.09;101876.22;4906190;28;45682;-68
2021/08/29 10:56:25;;;;;;;;;10.75;7.75;;;;;23.48;50.55;101871.66;4906134;28;45463;-68
2021/08/29 10:59:08;;;;;;;;;8.75;7.00;;;;;23.61;51.10;101868.97;4904794;28;45569;-67
2021/08/29 11:01:41;;;;;;;;;6.50;6.50;;;;;23.66;50.28;101859.41;4904551;28;45675;-68
2021/08/29 11:04:18;;;;;;;;;6.00;6.00;;;;;23.96;49.78;101860.63;4902227;28;46382;-68
2021/08/29 11:06:57;;;;;;;;;6.00;5.00;;;;;24.17;49.80;101861.41;4902207;28;45540;-68
2021/08/29 11:09:31;;;;;;;;;8.00;8.00;;;;;24.16;47.87;101855.19;4889999;28;45530;-68
2021/08/29 11:11:58;;;;;;;;;7.50;7.50;;;;;23.98;48.83;101855.84;4906030;28;45585;-67
2021/08/29 11:14:40;;;;;;;;;9.00;8.25;;;;;23.87;50.18;101855.66;4906920;28;46095;-68
2021/08/29 11:17:21;;;;;;;;;8.25;8.25;;;;;23.78;49.44;101853.19;4952540;28;45454;-68